Aérodrome :
LOGIN :

S'inscrire | Disclaimer

   EN    FR    IT 

 










Légende :    VFR   VFR Marginal   IFR   IFR Intensif   IFR Très Intensif
Visi : 
Plafond : 
>= 8 km
>= 3000ft
5 à 8 km
1000 à 3000 ft
1500m à 5 km
500 à 1000 ft
800 à 1500m
200 à 500 ft
< 800m
< 200 ft
Symboles :   Orages  Brouillard  Fortes neiges  Fortes précipitations  Vent > 20 kt
SIGMETs :   Divers  Orages  Givrage  Turbulence  Onde Orograph.  Cendres Volcan.







- Altitude de l'aérodrome : 119 ft
- Code IATA : QSR


LIRI - Salerno Pontecagnano

DERNIER METAR :
  • 191450Z 24004KT 9000 SCT060 26/20 Q1017

METARs EXPIRÉS :
  • 191350Z 22006KT 8000 SCT050 BKN070 26/18 Q1018
  • 191250Z 22006KT 9000 BKN060 26/19 Q1018

TAF N/A
Pas de NOTAMs connus pour ce terrain.
1 SIGMET publié pour la FIR Roma (LIRR) :
 
Orages fréquents
LIRR SIGMET 9 VALID 191500/191700 LIIB
LIRR ROMA FIR FRQ TS OBS WI N3734 E01124 - N3631 E01126 - N3632 E01316 - N3628 E01601 - N3813 E01641 - N3936 E01219 - N3734 E01124 TOP FL400 STNR NC=



MET'MAP, la Météo Aéronautique d'un coup d'oeil ! - Copyright ORBIFLY Décembre 2007 - Disclaimer

ORBIFLY MET'MAP TEAM :

Programmation & Développement : Alexandra Zaïnal
Conception & Développement : Baudouin d'Aumeries
Co-Programmation & Développement : Marc-Olivier Méhu
Soutien technique & logistique : Manuel Goepfert

Contact : metmap@orbifly.com




SOURCES & CREDITS :

   NOAA